Time;durP1;ratioP1;P1;durP2;ratioP2;P2;SDS_P1;SDS_P2;PMS_P1;PMS_P2;Temp;Humidity;BMP_temperature;BMP_pressure;BME280_temperature;BME280_humidity;BME280_pressure;Samples;Min_cycle;Max_cycle;Signal;HPM_P1;HPM_P2
2022/01/02 05:01:54;;;;;;;12.87;11.40;;;6.30;99.90;;;;;;5302839;23;20573;-73
2022/01/02 05:04:21;;;;;;;13.23;11.80;;;6.30;99.90;;;;;;4977550;28;20467;-74
2022/01/02 05:06:47;;;;;;;12.73;11.47;;;6.30;99.90;;;;;;4977735;28;20447;-73
2022/01/02 05:09:14;;;;;;;12.23;10.77;;;6.20;99.90;;;;;;4977398;28;20583;-73
2022/01/02 05:11:42;;;;;;;12.33;10.70;;;6.20;99.90;;;;;;4977327;28;20488;-74
2022/01/02 05:14:09;;;;;;;11.53;10.33;;;6.30;99.90;;;;;;4977335;28;20455;-74
2022/01/02 05:16:35;;;;;;;11.60;10.20;;;6.40;99.90;;;;;;4976912;28;20953;-73
2022/01/02 05:19:03;;;;;;;10.90;9.80;;;6.30;99.90;;;;;;4976726;28;20463;-74
2022/01/02 05:21:30;;;;;;;11.50;10.37;;;6.30;99.90;;;;;;4976320;28;21009;-74
2022/01/02 05:23:57;;;;;;;12.20;11.00;;;6.30;99.90;;;;;;4976879;28;20821;-74
2022/01/02 05:26:24;;;;;;;11.53;10.33;;;6.20;99.90;;;;;;4977141;28;20455;-73
2022/01/02 05:28:50;;;;;;;12.23;10.93;;;6.30;99.90;;;;;;4976981;28;20478;-73
2022/01/02 05:31:17;;;;;;;11.50;10.40;;;6.30;99.90;;;;;;4977104;28;20490;-74
2022/01/02 05:33:44;;;;;;;11.73;10.50;;;6.20;99.90;;;;;;4976885;28;20462;-74
2022/01/02 05:36:12;;;;;;;11.67;10.53;;;6.20;99.90;;;;;;4976724;28;20839;-73
2022/01/02 05:38:39;;;;;;;11.97;10.70;;;6.20;99.90;;;;;;4976840;28;20451;-73
2022/01/02 05:41:05;;;;;;;13.10;10.73;;;6.20;99.90;;;;;;4976881;28;20483;-73
2022/01/02 05:43:32;;;;;;;13.40;11.40;;;6.20;99.90;;;;;;4976258;28;20447;-74
2022/01/02 05:46:05;;;;;;;12.77;10.70;;;6.20;99.90;;;;;;4976719;28;20830;-73
2022/01/02 05:48:32;;;;;;;15.87;11.50;;;6.20;99.90;;;;;;4976569;28;20595;-73
2022/01/02 05:51:00;;;;;;;11.80;10.60;;;6.10;99.90;;;;;;4976698;28;20534;-74
2022/01/02 05:53:29;;;;;;;12.57;11.27;;;6.00;99.90;;;;;;4976910;28;20452;-73
2022/01/02 05:55:56;;;;;;;11.73;10.20;;;6.00;99.90;;;;;;4976913;28;20510;-74
2022/01/02 05:58:23;;;;;;;12.90;10.97;;;6.00;99.90;;;;;;4976551;28;20455;-74
2022/01/02 06:00:50;;;;;;;11.93;10.83;;;6.10;99.90;;;;;;4976288;28;20482;-73
2022/01/02 06:03:17;;;;;;;13.00;11.70;;;6.00;99.90;;;;;;4982975;28;20455;-73
2022/01/02 06:05:43;;;;;;;11.17;10.00;;;6.10;99.90;;;;;;4981839;28;20470;-74
2022/01/02 06:08:10;;;;;;;11.93;10.73;;;6.10;99.90;;;;;;4976604;28;20810;-74
2022/01/02 06:10:38;;;;;;;11.73;10.63;;;6.10;99.90;;;;;;4976333;28;20471;-74
2022/01/02 06:13:05;;;;;;;12.47;11.27;;;6.10;99.90;;;;;;4976497;28;20459;-74
2022/01/02 06:15:32;;;;;;;12.50;11.20;;;6.00;99.90;;;;;;4977384;28;20487;-74
2022/01/02 06:17:59;;;;;;;10.80;9.20;;;6.00;99.90;;;;;;4978034;28;20463;-73
2022/01/02 06:20:26;;;;;;;10.70;9.37;;;6.00;99.90;;;;;;4975928;28;20455;-74
2022/01/02 06:22:54;;;;;;;9.80;8.80;;;6.00;99.90;;;;;;4976429;28;20953;-74
2022/01/02 06:25:21;;;;;;;11.17;9.30;;;6.10;99.90;;;;;;4976251;28;20483;-74
2022/01/02 06:27:50;;;;;;;11.13;10.20;;;6.10;99.90;;;;;;4975405;28;20990;-74
2022/01/02 06:30:16;;;;;;;10.07;9.03;;;6.00;99.90;;;;;;4975241;28;20954;-74
2022/01/02 06:32:43;;;;;;;13.53;10.63;;;6.00;99.90;;;;;;4976012;28;20462;-73
2022/01/02 06:35:10;;;;;;;10.50;9.40;;;6.00;99.90;;;;;;4975934;28;20455;-74
2022/01/02 06:37:37;;;;;;;11.00;9.90;;;6.00;99.90;;;;;;4976183;28;20459;-74
2022/01/02 06:40:05;;;;;;;10.40;9.30;;;6.00;99.90;;;;;;4975545;28;20961;-73
2022/01/02 06:42:32;;;;;;;10.30;9.20;;;6.00;99.90;;;;;;4975618;28;20475;-73
2022/01/02 06:45:00;;;;;;;10.57;9.30;;;6.10;99.90;;;;;;4975732;28;20950;-74
2022/01/02 06:47:27;;;;;;;11.30;9.20;;;6.10;99.90;;;;;;4976249;28;20475;-74
2022/01/02 06:49:53;;;;;;;10.67;9.37;;;6.10;99.90;;;;;;4975668;28;20451;-73
2022/01/02 06:52:20;;;;;;;8.97;8.07;;;6.20;99.90;;;;;;4975846;28;20478;-74
2022/01/02 06:54:47;;;;;;;9.90;8.90;;;6.20;99.90;;;;;;4975901;28;20461;-74
2022/01/02 06:57:13;;;;;;;9.57;8.50;;;6.20;99.90;;;;;;4975646;28;20954;-74
2022/01/02 06:59:41;;;;;;;9.03;8.13;;;6.10;99.90;;;;;;4975805;28;20467;-73
2022/01/02 07:02:09;;;;;;;9.03;7.83;;;6.10;99.90;;;;;;4975442;28;20487;-74
2022/01/02 07:04:36;;;;;;;10.10;9.10;;;6.10;99.90;;;;;;4975598;28;20486;-74
2022/01/02 07:07:03;;;;;;;10.10;8.80;;;6.10;99.90;;;;;;4975954;28;20463;-74
2022/01/02 07:09:31;;;;;;;10.10;9.10;;;6.10;99.90;;;;;;4976008;28;20494;-74
2022/01/02 07:11:59;;;;;;;9.33;8.40;;;6.10;99.90;;;;;;4982258;28;20485;-74
2022/01/02 07:14:27;;;;;;;8.63;7.73;;;6.20;99.90;;;;;;4978675;28;20479;-73
2022/01/02 07:16:54;;;;;;;8.60;7.80;;;6.20;99.90;;;;;;4975626;28;20547;-78
2022/01/02 07:19:22;;;;;;;8.80;7.90;;;6.20;99.90;;;;;;4975660;28;20950;-74
2022/01/02 07:21:49;;;;;;;9.80;8.30;;;6.30;99.90;;;;;;4975262;28;20985;-73
2022/01/02 07:24:16;;;;;;;9.53;8.63;;;6.40;99.90;;;;;;4975869;28;20459;-73
2022/01/02 07:26:44;;;;;;;8.77;7.97;;;6.40;99.90;;;;;;4975568;28;20942;-75
2022/01/02 07:29:11;;;;;;;9.27;7.47;;;6.50;99.90;;;;;;4976240;28;20501;-74
2022/01/02 07:31:38;;;;;;;8.93;8.13;;;6.50;99.90;;;;;;4976365;28;20483;-74
2022/01/02 07:34:05;;;;;;;8.63;7.73;;;6.50;99.90;;;;;;4980650;28;20824;-74
2022/01/02 07:36:33;;;;;;;8.83;7.57;;;6.50;99.90;;;;;;4981140;28;20935;-76
2022/01/02 07:39:00;;;;;;;8.80;7.90;;;6.50;99.90;;;;;;4975234;28;20462;-77
2022/01/02 07:41:27;;;;;;;9.00;7.23;;;6.50;99.90;;;;;;4976719;28;20479;-75
2022/01/02 07:43:58;;;;;;;8.20;7.43;;;6.50;99.90;;;;;;4977340;28;20454;-76
2022/01/02 07:46:25;;;;;;;8.23;7.53;;;6.60;99.90;;;;;;4980217;28;20443;-75
2022/01/02 07:48:52;;;;;;;8.10;7.30;;;6.70;99.90;;;;;;4979152;28;20483;-77
2022/01/02 07:51:18;;;;;;;7.93;6.93;;;6.80;99.90;;;;;;4980397;28;20485;-77
2022/01/02 07:53:46;;;;;;;9.00;8.10;;;6.80;99.90;;;;;;4979387;28;20462;-77
2022/01/02 07:56:13;;;;;;;10.43;9.37;;;6.90;99.90;;;;;;4979823;28;20458;-75
2022/01/02 07:58:40;;;;;;;10.43;9.33;;;7.00;99.90;;;;;;4978413;28;20451;-77
2022/01/02 08:01:06;;;;;;;9.70;7.70;;;7.00;99.90;;;;;;4978282;28;20594;-76
2022/01/02 08:03:33;;;;;;;9.53;7.70;;;7.10;99.90;;;;;;4979477;28;20459;-77
2022/01/02 08:06:00;;;;;;;8.00;7.30;;;7.20;99.90;;;;;;4983944;28;20455;-76
2022/01/02 08:08:27;;;;;;;8.37;7.47;;;7.30;99.90;;;;;;4978443;28;20820;-75
2022/01/02 08:10:55;;;;;;;8.07;7.33;;;7.40;99.90;;;;;;4978390;28;20475;-75
2022/01/02 08:13:22;;;;;;;7.93;7.20;;;7.60;99.90;;;;;;4977456;28;20455;-71
2022/01/02 08:15:49;;;;;;;7.90;7.20;;;7.70;99.90;;;;;;4978463;28;20462;-76
2022/01/02 08:18:16;;;;;;;7.93;6.77;;;7.80;99.90;;;;;;4977999;28;20450;-74
2022/01/02 08:20:45;;;;;;;7.37;6.63;;;7.90;99.90;;;;;;4977583;28;20483;-75
2022/01/02 08:23:12;;;;;;;7.73;7.03;;;8.10;99.90;;;;;;4977994;28;20451;-75
2022/01/02 08:25:39;;;;;;;7.67;6.97;;;8.30;99.90;;;;;;4977168;28;20947;-75
2022/01/02 08:28:07;;;;;;;7.20;6.50;;;8.60;99.90;;;;;;4977269;28;20479;-76
2022/01/02 08:30:34;;;;;;;7.60;7.00;;;9.20;99.90;;;;;;4979669;28;20868;-76
2022/01/02 08:33:01;;;;;;;6.87;6.17;;;10.30;99.90;;;;;;4978064;28;20467;-76
2022/01/02 08:35:28;;;;;;;5.97;5.37;;;11.10;99.90;;;;;;4977798;28;20448;-77
2022/01/02 08:37:55;;;;;;;6.57;6.07;;;11.90;99.90;;;;;;4978718;28;20464;-75
2022/01/02 08:40:21;;;;;;;8.17;7.47;;;13.10;99.90;;;;;;4977116;28;20465;-71
2022/01/02 08:42:48;;;;;;;6.70;6.20;;;13.80;99.90;;;;;;4977276;28;20461;-72
2022/01/02 08:45:16;;;;;;;8.07;7.27;;;13.70;99.90;;;;;;4977118;28;20471;-71
2022/01/02 08:47:43;;;;;;;7.27;6.57;;;13.30;99.90;;;;;;4977743;28;20464;-72
2022/01/02 08:50:10;;;;;;;12.57;8.70;;;12.60;99.90;;;;;;4978104;28;20463;-71
2022/01/02 08:52:37;;;;;;;7.83;6.93;;;12.10;99.90;;;;;;4978394;28;20463;-71
2022/01/02 08:55:04;;;;;;;6.70;6.17;;;12.50;99.90;;;;;;4977156;28;20462;-72
2022/01/02 08:57:31;;;;;;;6.47;5.87;;;13.30;99.90;;;;;;4977729;28;20452;-73
2022/01/02 08:59:58;;;;;;;6.70;6.10;;;13.70;99.90;;;;;;4978878;28;20468;-72
2022/01/02 09:02:26;;;;;;;7.37;6.77;;;13.60;99.90;;;;;;4981382;28;20479;-73
2022/01/02 09:04:53;;;;;;;6.30;5.70;;;13.20;99.90;;;;;;4980182;28;20462;-73
2022/01/02 09:07:20;;;;;;;6.77;6.07;;;12.70;99.90;;;;;;4978268;28;20810;-72
2022/01/02 09:09:46;;;;;;;6.70;6.10;;;12.00;99.90;;;;;;4977253;28;20475;-73
2022/01/02 09:12:14;;;;;;;5.90;5.40;;;11.70;99.90;;;;;;4977526;28;20480;-73
2022/01/02 09:14:41;;;;;;;6.80;6.20;;;11.30;99.90;;;;;;4977256;28;20496;-73
2022/01/02 09:17:08;;;;;;;6.70;6.20;;;11.30;99.90;;;;;;4977298;28;20442;-73
2022/01/02 09:19:37;;;;;;;7.43;6.83;;;10.90;99.90;;;;;;4977116;28;20473;-73
2022/01/02 09:22:04;;;;;;;6.47;5.93;;;10.70;99.90;;;;;;4977617;28;20477;-73
2022/01/02 09:24:31;;;;;;;7.63;6.93;;;10.50;99.90;;;;;;4977397;28;20457;-73
2022/01/02 09:26:58;;;;;;;7.40;6.70;;;10.50;99.90;;;;;;4976910;28;20460;-73
2022/01/02 09:29:25;;;;;;;6.53;5.93;;;10.30;99.90;;;;;;4977104;28;20483;-73
2022/01/02 09:31:52;;;;;;;6.80;6.10;;;10.10;99.90;;;;;;4977539;28;20480;-73
2022/01/02 09:34:18;;;;;;;6.57;5.97;;;10.20;99.90;;;;;;4977750;28;20452;-73
2022/01/02 09:36:46;;;;;;;8.60;5.83;;;10.20;99.90;;;;;;4977075;28;20460;-72
2022/01/02 09:39:13;;;;;;;7.77;6.43;;;10.20;99.90;;;;;;4976596;28;20455;-73
2022/01/02 09:41:40;;;;;;;6.17;5.67;;;10.30;99.90;;;;;;4976806;28;20479;-74
2022/01/02 09:44:07;;;;;;;6.60;6.10;;;10.30;99.90;;;;;;4976481;28;20498;-73
2022/01/02 09:46:35;;;;;;;7.23;6.60;;;10.20;99.90;;;;;;4976219;28;20517;-74
2022/01/02 09:49:04;;;;;;;6.50;5.90;;;10.30;99.90;;;;;;4976404;28;21018;-73
2022/01/02 09:51:30;;;;;;;6.60;5.97;;;10.30;99.90;;;;;;4976550;28;20483;-73
2022/01/02 09:53:59;;;;;;;6.27;5.77;;;10.30;99.90;;;;;;4976075;28;20457;-73
2022/01/02 09:56:25;;;;;;;6.27;5.67;;;10.30;99.90;;;;;;4977285;28;20442;-74
2022/01/02 09:58:53;;;;;;;7.40;6.70;;;10.30;99.90;;;;;;4976616;28;20436;-73
2022/01/02 10:01:21;;;;;;;9.60;7.00;;;10.10;99.90;;;;;;4976020;28;20508;-73
2022/01/02 10:03:50;;;;;;;10.70;7.87;;;10.10;99.90;;;;;;4976811;28;20793;-74
2022/01/02 10:06:18;;;;;;;17.23;10.00;;;10.10;99.90;;;;;;4976451;28;20458;-73
2022/01/02 10:08:45;;;;;;;10.60;8.20;;;10.10;99.90;;;;;;4976210;28;20998;-73
2022/01/02 10:11:19;;;;;;;8.60;7.20;;;10.10;99.90;;;;;;4976570;28;20526;-74
2022/01/02 10:13:48;;;;;;;8.40;7.10;;;10.10;99.90;;;;;;4976524;28;20451;-73
2022/01/02 10:16:30;;;;;;;7.43;6.73;;;10.20;99.90;;;;;;4976255;28;20556;-73
2022/01/02 10:18:57;;;;;;;6.60;5.97;;;10.20;99.90;;;;;;4976217;28;20449;-73
2022/01/02 10:21:35;;;;;;;7.80;6.90;;;10.20;99.90;;;;;;4976517;28;20477;-76
2022/01/02 10:24:14;;;;;;;6.40;5.77;;;10.20;99.90;;;;;;4976648;28;20456;-76
2022/01/02 10:27:02;;;;;;;6.40;5.90;;;10.20;99.90;;;;;;4976370;28;20466;-76
2022/01/02 10:29:40;;;;;;;6.80;6.10;;;10.20;99.90;;;;;;4976869;28;20468;-76
2022/01/02 10:32:23;;;;;;;7.10;6.47;;;10.20;99.90;;;;;;4976819;28;20479;-76
2022/01/02 10:34:49;;;;;;;6.60;6.10;;;10.10;99.90;;;;;;4980723;28;20455;-75
2022/01/02 10:37:23;;;;;;;5.73;5.33;;;9.90;99.90;;;;;;4981508;28;20444;-75
2022/01/02 10:39:50;;;;;;;6.90;6.30;;;9.90;99.90;;;;;;4976924;28;20494;-75
2022/01/02 10:42:19;;;;;;;6.87;6.30;;;9.80;99.90;;;;;;4976617;28;20874;-76
2022/01/02 10:44:46;;;;;;;8.90;8.00;;;9.80;99.90;;;;;;4976419;28;20463;-76
2022/01/02 10:47:16;;;;;;;7.93;6.80;;;9.70;99.90;;;;;;4976487;28;20457;-73
2022/01/02 10:50:02;;;;;;;8.00;7.30;;;9.80;99.90;;;;;;4975897;28;20478;-73
2022/01/02 10:52:31;;;;;;;6.47;5.90;;;9.80;99.90;;;;;;4976501;28;20486;-74
2022/01/02 10:55:00;;;;;;;7.13;6.53;;;9.70;99.90;;;;;;4976373;28;20508;-75
2022/01/02 10:57:28;;;;;;;11.10;7.97;;;9.70;99.90;;;;;;4975940;28;20465;-75
2022/01/02 11:00:09;;;;;;;10.10;9.00;;;9.60;99.90;;;;;;4976608;28;20452;-76
2022/01/02 11:02:37;;;;;;;8.30;7.50;;;9.60;99.90;;;;;;4976068;28;20577;-76
2022/01/02 11:05:07;;;;;;;7.83;7.03;;;9.70;99.90;;;;;;4976444;28;20494;-76
2022/01/02 11:07:40;;;;;;;8.53;7.73;;;9.80;99.90;;;;;;4975778;28;20487;-75
2022/01/02 11:10:09;;;;;;;7.87;7.07;;;9.90;99.90;;;;;;4977172;28;20895;-75
2022/01/02 11:12:42;;;;;;;7.87;7.07;;;9.90;99.90;;;;;;4975822;28;20475;-76
2022/01/02 11:15:12;;;;;;;7.40;6.67;;;10.00;99.90;;;;;;4975916;28;20444;-76
2022/01/02 11:17:39;;;;;;;8.23;7.43;;;10.20;99.90;;;;;;4975695;28;20465;-76
2022/01/02 11:20:08;;;;;;;8.03;6.77;;;10.30;99.90;;;;;;4980570;28;20440;-75
2022/01/02 11:22:41;;;;;;;10.00;8.63;;;10.40;99.90;;;;;;4980531;28;20669;-77
2022/01/02 11:25:14;;;;;;;9.40;8.40;;;10.20;99.90;;;;;;4979360;28;20451;-75
2022/01/02 11:27:45;;;;;;;13.20;9.77;;;10.40;99.90;;;;;;4980221;28;20460;-76
2022/01/02 11:30:38;;;;;;;8.10;7.30;;;10.40;99.90;;;;;;4980123;28;20477;-75
2022/01/02 11:33:08;;;;;;;11.43;7.07;;;10.40;99.90;;;;;;4980258;28;20451;-75
2022/01/02 11:35:36;;;;;;;9.07;6.43;;;10.50;99.90;;;;;;4980411;28;20448;-76
2022/01/02 11:38:04;;;;;;;7.30;6.60;;;10.50;99.90;;;;;;4979291;28;20487;-76
2022/01/02 11:40:48;;;;;;;8.10;6.80;;;10.50;99.90;;;;;;4979612;28;20459;-75
2022/01/02 11:43:52;;;;;;;7.97;7.27;;;10.50;99.90;;;;;;4979666;28;20799;-75
2022/01/02 11:46:25;;;;;;;6.50;5.90;;;10.50;99.90;;;;;;4979900;28;20560;-76
2022/01/02 11:49:18;;;;;;;6.57;6.00;;;10.50;99.90;;;;;;4980692;28;20446;-76
2022/01/02 11:52:07;;;;;;;6.47;5.97;;;10.40;99.90;;;;;;4980021;28;20480;-76
2022/01/02 11:54:40;;;;;;;6.43;5.80;;;10.30;99.90;;;;;;4979770;28;20990;-76
2022/01/02 11:57:52;;;;;;;6.30;5.80;;;10.40;99.90;;;;;;4979366;28;20447;-76
2022/01/02 12:00:47;;;;;;;7.77;7.07;;;10.40;99.90;;;;;;4978469;28;20455;-75
2022/01/02 12:03:48;;;;;;;6.77;6.07;;;10.20;99.90;;;;;;4978572;28;20441;-74
2022/01/02 12:06:23;;;;;;;6.20;5.60;;;10.30;99.90;;;;;;4979605;28;20440;-75
2022/01/02 12:08:51;;;;;;;7.80;6.73;;;10.40;99.90;;;;;;4984033;28;20442;-72
2022/01/02 12:11:41;;;;;;;7.20;6.03;;;10.40;99.90;;;;;;4978821;28;20483;-71
2022/01/02 12:14:10;;;;;;;7.17;6.57;;;10.50;99.90;;;;;;4978998;28;20458;-73
2022/01/02 12:16:40;;;;;;;6.97;6.27;;;10.50;99.90;;;;;;4979863;28;20929;-73
2022/01/02 12:19:09;;;;;;;7.40;6.70;;;10.60;99.90;;;;;;4979419;28;20529;-73
2022/01/02 12:21:37;;;;;;;6.97;6.37;;;10.60;99.90;;;;;;4980079;28;20597;-73
2022/01/02 12:24:12;;;;;;;7.47;6.80;;;10.60;99.90;;;;;;4978651;28;20814;-73
2022/01/02 12:26:39;;;;;;;6.43;5.83;;;10.70;99.90;;;;;;4979166;28;20468;-73
2022/01/02 12:29:07;;;;;;;8.63;6.73;;;10.70;99.90;;;;;;4980108;28;20515;-73
2022/01/02 12:31:36;;;;;;;6.93;6.33;;;10.90;99.90;;;;;;4978609;28;20478;-72
2022/01/02 12:34:06;;;;;;;5.53;5.03;;;11.10;99.90;;;;;;4978963;28;20453;-75
2022/01/02 12:36:33;;;;;;;7.40;5.90;;;11.40;99.90;;;;;;4980113;28;20436;-74
2022/01/02 12:39:01;;;;;;;6.63;5.97;;;11.70;99.90;;;;;;4978129;28;20458;-74
2022/01/02 12:41:30;;;;;;;6.13;5.50;;;11.90;99.90;;;;;;4978342;28;20473;-72
2022/01/02 12:43:59;;;;;;;5.17;4.67;;;12.20;99.90;;;;;;4978133;28;20459;-75
2022/01/02 12:46:38;;;;;;;5.47;4.80;;;12.40;99.90;;;;;;4978436;28;20454;-74
2022/01/02 12:49:09;;;;;;;5.50;5.00;;;12.70;99.90;;;;;;4978770;28;20443;-74
2022/01/02 12:51:38;;;;;;;4.20;3.90;;;13.00;99.90;;;;;;4978381;28;20499;-74
2022/01/02 12:54:07;;;;;;;3.63;2.27;;;13.20;99.90;;;;;;4978075;28;20489;-74
2022/01/02 12:56:39;;;;;;;2.10;2.00;;;13.50;99.90;;;;;;4978224;28;20464;-73
2022/01/02 12:59:17;;;;;;;2.40;1.63;;;13.90;99.90;;;;;;4977733;28;20444;-74
2022/01/02 13:01:51;;;;;;;2.23;2.13;;;14.30;99.90;;;;;;4977990;28;20514;-73
2022/01/02 13:04:22;;;;;;;4.33;1.70;;;14.60;99.90;;;;;;4977539;28;20462;-74
2022/01/02 13:06:49;;;;;;;3.63;2.17;;;14.90;99.90;;;;;;4977278;28;20503;-75
2022/01/02 13:09:23;;;;;;;4.27;1.90;;;15.10;99.90;;;;;;4977020;28;20465;-75
2022/01/02 13:11:50;;;;;;;2.03;1.93;;;15.30;99.90;;;;;;4977056;28;20517;-75
2022/01/02 13:14:33;;;;;;;2.43;2.10;;;15.60;99.90;;;;;;4977489;28;20510;-75
2022/01/02 13:17:02;;;;;;;1.73;1.73;;;15.80;99.90;;;;;;4977130;28;20423;-75
2022/01/02 13:19:31;;;;;;;2.73;1.87;;;16.00;99.90;;;;;;4977223;28;20923;-75
2022/01/02 13:21:58;;;;;;;1.70;1.60;;;16.20;99.90;;;;;;4977095;28;20520;-75
2022/01/02 13:24:28;;;;;;;1.60;1.50;;;16.30;99.90;;;;;;4976662;28;20463;-75
2022/01/02 13:26:55;;;;;;;2.37;2.20;;;16.30;99.90;;;;;;4977766;28;20469;-75
2022/01/02 13:29:27;;;;;;;2.47;2.27;;;16.40;99.90;;;;;;4976560;28;20451;-74
2022/01/02 13:31:56;;;;;;;2.67;1.60;;;16.40;99.90;;;;;;4976309;28;20508;-75
2022/01/02 13:34:25;;;;;;;1.80;1.70;;;16.50;99.90;;;;;;4977090;28;20462;-74
2022/01/02 13:36:57;;;;;;;3.60;1.67;;;16.60;99.90;;;;;;4977553;28;20455;-73
2022/01/02 13:39:41;;;;;;;3.43;2.20;;;16.80;99.60;;;;;;4978413;28;20466;-74
2022/01/02 13:42:09;;;;;;;2.10;2.00;;;16.90;98.50;;;;;;4984757;28;20475;-71
2022/01/02 13:44:37;;;;;;;4.57;2.37;;;16.90;98.80;;;;;;4977142;28;20466;-71
2022/01/02 13:47:04;;;;;;;2.57;2.00;;;17.00;98.70;;;;;;4976829;28;20796;-72
2022/01/02 13:49:45;;;;;;;2.37;1.80;;;16.90;98.20;;;;;;4976980;28;20458;-73
2022/01/02 13:52:14;;;;;;;2.03;1.87;;;17.00;97.60;;;;;;4976551;28;20478;-73
2022/01/02 13:54:41;;;;;;;4.27;2.53;;;17.00;96.90;;;;;;4977014;28;20487;-72
2022/01/02 13:57:10;;;;;;;2.00;1.90;;;16.90;96.50;;;;;;4976415;28;20459;-72
2022/01/02 13:59:37;;;;;;;4.13;2.07;;;16.90;96.70;;;;;;4976316;28;20545;-72
2022/01/02 14:02:04;;;;;;;1.70;1.60;;;16.90;96.20;;;;;;4976337;28;20509;-72
2022/01/02 14:04:55;;;;;;;2.10;2.00;;;16.90;95.30;;;;;;4976382;28;20454;-73
2022/01/02 14:07:28;;;;;;;2.17;2.07;;;16.90;95.60;;;;;;4976214;28;20802;-72
2022/01/02 14:09:55;;;;;;;2.47;2.27;;;16.80;95.90;;;;;;4977306;28;20820;-73
2022/01/02 14:12:26;;;;;;;3.23;2.00;;;16.80;95.80;;;;;;4977219;28;20485;-71
2022/01/02 14:15:02;;;;;;;2.90;1.97;;;16.70;95.40;;;;;;4977083;28;20946;-70
2022/01/02 14:17:34;;;;;;;2.37;1.83;;;16.70;96.40;;;;;;4977747;28;20453;-68
2022/01/02 14:20:03;;;;;;;3.40;1.87;;;16.50;96.10;;;;;;4977238;28;20474;-70
2022/01/02 14:22:35;;;;;;;1.90;1.80;;;16.50;96.20;;;;;;4981041;28;20475;-70
2022/01/02 14:25:04;;;;;;;2.37;2.20;;;16.50;96.00;;;;;;4978281;28;20450;-71
2022/01/02 14:27:32;;;;;;;2.60;2.40;;;16.50;96.10;;;;;;4978307;28;20462;-71
2022/01/02 14:30:00;;;;;;;2.63;2.30;;;16.50;96.70;;;;;;4977296;28;20582;-70
2022/01/02 14:32:27;;;;;;;2.87;2.67;;;16.60;97.30;;;;;;4975879;28;20485;-70
2022/01/02 14:34:54;;;;;;;2.40;2.10;;;16.70;97.90;;;;;;4975328;28;20463;-71
2022/01/02 14:37:22;;;;;;;2.47;2.37;;;16.60;96.70;;;;;;4975515;28;20454;-74
2022/01/02 14:39:50;;;;;;;3.77;2.37;;;16.60;96.90;;;;;;4975707;28;20458;-74
2022/01/02 14:42:18;;;;;;;3.63;2.10;;;16.70;97.80;;;;;;4975536;28;20661;-74
2022/01/02 14:44:45;;;;;;;2.10;1.90;;;16.60;98.10;;;;;;4975705;28;20458;-74
2022/01/02 14:47:12;;;;;;;4.00;2.60;;;16.50;98.30;;;;;;4975856;28;20458;-74
2022/01/02 14:49:39;;;;;;;2.70;2.33;;;16.40;99.40;;;;;;4976894;28;20451;-74
2022/01/02 14:52:06;;;;;;;1.70;1.60;;;16.30;99.70;;;;;;4976505;28;20559;-74
2022/01/02 14:54:33;;;;;;;2.23;2.03;;;16.20;99.90;;;;;;4981041;28;20457;-74
2022/01/02 14:57:02;;;;;;;2.20;2.00;;;16.10;99.90;;;;;;4979680;28;20461;-72
2022/01/02 14:59:30;;;;;;;2.27;2.13;;;16.00;99.90;;;;;;4979562;28;20508;-72
2022/01/02 15:01:57;;;;;;;2.67;2.03;;;16.00;99.90;;;;;;4978980;28;20994;-75
2022/01/02 15:04:23;;;;;;;4.03;2.03;;;16.00;99.90;;;;;;4980012;28;20457;-71
2022/01/02 15:06:51;;;;;;;2.30;2.10;;;16.00;99.90;;;;;;4979463;28;20454;-72
2022/01/02 15:09:18;;;;;;;1.83;1.73;;;15.90;99.90;;;;;;4979406;28;20560;-72
2022/01/02 15:11:45;;;;;;;6.07;2.10;;;15.80;99.90;;;;;;4979809;28;20497;-72
2022/01/02 15:14:13;;;;;;;2.67;2.47;;;15.70;99.90;;;;;;4979937;28;20464;-72
2022/01/02 15:16:41;;;;;;;2.40;2.20;;;15.60;99.90;;;;;;4978975;28;20452;-71
2022/01/02 15:19:08;;;;;;;2.60;2.40;;;15.50;99.90;;;;;;4979742;28;20469;-71
2022/01/02 15:21:35;;;;;;;3.03;2.80;;;15.40;99.90;;;;;;4979175;28;20473;-72
2022/01/02 15:24:02;;;;;;;4.00;3.50;;;15.20;99.90;;;;;;4979331;28;20468;-72
2022/01/02 15:26:29;;;;;;;4.10;3.77;;;14.90;99.90;;;;;;4978680;28;20946;-71
2022/01/02 15:28:55;;;;;;;4.03;3.73;;;14.60;99.90;;;;;;4978964;28;20461;-71
2022/01/02 15:31:24;;;;;;;4.07;3.73;;;14.40;99.90;;;;;;4979225;28;20487;-71
2022/01/02 15:33:51;;;;;;;5.93;3.90;;;14.30;99.90;;;;;;4978960;28;20525;-71
2022/01/02 15:36:18;;;;;;;4.37;3.73;;;14.20;99.90;;;;;;4979111;28;20472;-71
2022/01/02 15:38:45;;;;;;;4.20;3.80;;;14.00;99.90;;;;;;4978605;28;20508;-71
2022/01/02 15:41:13;;;;;;;3.70;3.50;;;13.90;99.90;;;;;;4978513;28;20476;-71
2022/01/02 15:43:43;;;;;;;5.40;4.00;;;13.70;99.90;;;;;;4979091;28;20463;-71
2022/01/02 15:46:10;;;;;;;4.83;4.07;;;13.60;99.90;;;;;;4978979;28;20909;-71
2022/01/02 15:48:41;;;;;;;4.83;4.43;;;13.50;99.90;;;;;;4978817;28;20971;-72
2022/01/02 15:51:08;;;;;;;4.47;4.00;;;13.40;99.90;;;;;;4979301;28;20531;-71
2022/01/02 15:53:34;;;;;;;4.90;4.43;;;13.20;99.90;;;;;;4990074;28;20469;-71
2022/01/02 15:56:01;;;;;;;4.50;4.10;;;13.10;99.90;;;;;;4982134;28;20460;-71
2022/01/02 15:58:28;;;;;;;4.63;4.23;;;12.90;99.90;;;;;;4978681;28;20953;-72
2022/01/02 16:00:56;;;;;;;3.83;3.53;;;12.80;99.90;;;;;;4978802;28;20569;-71
2022/01/02 16:03:23;;;;;;;4.60;3.40;;;12.70;99.90;;;;;;4978989;28;20443;-72
2022/01/02 16:05:53;;;;;;;3.20;3.00;;;12.70;99.90;;;;;;4978342;28;20821;-72
2022/01/02 16:08:21;;;;;;;4.13;3.53;;;12.60;99.90;;;;;;4978701;28;20443;-72
2022/01/02 16:10:48;;;;;;;5.13;4.30;;;12.60;99.90;;;;;;4978415;28;20484;-71
2022/01/02 16:13:15;;;;;;;4.20;3.90;;;12.50;99.90;;;;;;4978333;28;20439;-74
2022/01/02 16:15:43;;;;;;;4.23;3.93;;;12.40;99.90;;;;;;4978366;28;20439;-70
2022/01/02 16:18:09;;;;;;;4.63;4.20;;;12.40;99.90;;;;;;4978444;28;20454;-71
2022/01/02 16:20:36;;;;;;;4.10;3.70;;;12.40;99.90;;;;;;4978445;28;20479;-71
2022/01/02 16:23:05;;;;;;;5.30;3.90;;;12.40;99.90;;;;;;4978438;28;20458;-70
2022/01/02 16:25:32;;;;;;;4.10;3.70;;;12.30;99.90;;;;;;4978368;28;20465;-70
2022/01/02 16:27:59;;;;;;;5.50;4.00;;;12.30;99.90;;;;;;4978744;28;20474;-70
2022/01/02 16:30:26;;;;;;;3.97;3.67;;;12.30;99.90;;;;;;4978283;28;20463;-70
2022/01/02 16:32:53;;;;;;;5.33;3.60;;;12.30;99.90;;;;;;4978305;28;20443;-70
2022/01/02 16:35:20;;;;;;;6.13;4.10;;;12.20;99.90;;;;;;4977813;28;20799;-71
2022/01/02 16:37:46;;;;;;;4.73;4.33;;;12.20;99.90;;;;;;4978314;28;20463;-70
2022/01/02 16:40:14;;;;;;;4.20;3.57;;;12.10;99.90;;;;;;4978032;28;20455;-70
2022/01/02 16:42:41;;;;;;;7.30;4.37;;;12.10;99.90;;;;;;4978006;28;20455;-70
2022/01/02 16:45:09;;;;;;;6.10;5.20;;;12.10;99.90;;;;;;4978509;28;20455;-70
2022/01/02 16:47:37;;;;;;;4.87;4.43;;;12.10;99.90;;;;;;4983266;28;20442;-70
2022/01/02 16:50:05;;;;;;;5.60;4.80;;;12.10;99.90;;;;;;4999784;28;20453;-70
2022/01/02 16:52:33;;;;;;;4.20;3.80;;;12.00;99.90;;;;;;4997725;28;20494;-71
2022/01/02 16:54:59;;;;;;;8.20;3.70;;;12.00;99.90;;;;;;4979036;28;20464;-70
2022/01/02 16:57:27;;;;;;;3.93;3.27;;;11.90;99.90;;;;;;4977982;28;20461;-70
2022/01/02 16:59:57;;;;;;;4.27;3.87;;;11.90;99.90;;;;;;4977943;28;20950;-71
2022/01/02 17:02:24;;;;;;;3.40;2.93;;;11.90;99.90;;;;;;4977804;28;20479;-70
2022/01/02 17:04:51;;;;;;;3.40;3.10;;;11.90;99.90;;;;;;4977392;28;20478;-70
2022/01/02 17:07:17;;;;;;;4.43;3.60;;;11.90;99.90;;;;;;4977512;28;20445;-71
2022/01/02 17:09:44;;;;;;;3.83;3.30;;;11.90;99.90;;;;;;4977486;28;20466;-70
2022/01/02 17:12:11;;;;;;;4.83;3.60;;;11.80;99.90;;;;;;4977092;28;20541;-70
2022/01/02 17:14:39;;;;;;;3.27;3.07;;;11.80;99.90;;;;;;4977152;28;20893;-71
2022/01/02 17:17:05;;;;;;;4.13;3.70;;;11.80;99.90;;;;;;4976037;28;20456;-71
2022/01/02 17:19:32;;;;;;;4.87;4.10;;;11.80;99.90;;;;;;4977214;28;20466;-71
2022/01/02 17:21:59;;;;;;;4.93;3.57;;;11.80;99.90;;;;;;4977758;28;20478;-71
2022/01/02 17:24:26;;;;;;;5.63;3.30;;;11.80;99.90;;;;;;4981111;28;20466;-71
2022/01/02 17:26:53;;;;;;;3.60;3.30;;;11.70;99.90;;;;;;4982511;28;20453;-71
2022/01/02 17:29:19;;;;;;;5.10;3.70;;;11.60;99.90;;;;;;4976125;28;20858;-70
2022/01/02 17:31:59;;;;;;;3.87;3.57;;;11.60;99.90;;;;;;4976446;28;20490;-71
2022/01/02 17:34:26;;;;;;;4.27;3.93;;;11.60;99.90;;;;;;4976622;28;20768;-70
2022/01/02 17:36:52;;;;;;;4.93;3.80;;;11.60;99.90;;;;;;4976613;28;20975;-70
2022/01/02 17:39:19;;;;;;;3.87;3.57;;;11.50;99.90;;;;;;4976970;28;20470;-70
2022/01/02 17:41:46;;;;;;;5.77;3.93;;;11.50;99.90;;;;;;4976875;28;20484;-70
2022/01/02 17:44:15;;;;;;;4.13;3.83;;;11.40;99.90;;;;;;4977090;28;20838;-70
2022/01/02 17:46:42;;;;;;;5.10;4.10;;;11.40;99.90;;;;;;4976624;28;20483;-71
2022/01/02 17:49:11;;;;;;;4.40;4.00;;;11.30;99.90;;;;;;4977108;28;20462;-71
2022/01/02 17:51:38;;;;;;;5.83;4.20;;;11.30;99.90;;;;;;4976767;28;20998;-70
2022/01/02 17:54:04;;;;;;;6.10;4.20;;;11.30;99.90;;;;;;4976715;28;20500;-71
2022/01/02 17:56:32;;;;;;;5.90;4.83;;;11.20;99.90;;;;;;4976538;28;20460;-71
2022/01/02 17:58:59;;;;;;;5.47;4.30;;;11.20;99.90;;;;;;4976475;28;20462;-70